This is the latest recevied weather packets stored in our database for station/object W4DHW-4. If no packets are shown the sender has not sent any weather packets the latest 10 day(s).
| Time | Temp. | Humidity | Pressure | Rain* | Wind** | Luminosity | Snow |
|---|---|---|---|---|---|---|---|
| 1777913296 | 19.44° C | 45% | 1015.2 hPa | 0 mm | - | 584 W/m² | - |
| 1777912993 | 18.89° C | 45% | 1015.6 hPa | 0 mm | - | 600 W/m² | - |
| 1777912689 | 18.89° C | 46% | 1015.6 hPa | 0 mm | - | 451 W/m² | - |
| 1777912385 | 18.89° C | 46% | 1015.4 hPa | 0 mm | - | 445 W/m² | - |
| 1777912081 | 18.33° C | 47% | 1015.3 hPa | 0 mm | - | 371 W/m² | - |
| 1777911777 | 18.33° C | 47% | 1015.4 hPa | 0 mm | - | 394 W/m² | - |
| 1777911474 | 18.33° C | 46% | 1015.4 hPa | 0 mm | - | 398 W/m² | - |
| 1777911171 | 17.78° C | 47% | 1015.4 hPa | 0 mm | - | 432 W/m² | - |
| 1777910869 | 17.78° C | 46% | 1015.5 hPa | 0 mm | - | 402 W/m² | - |
| 1777910565 | 17.78° C | 48% | 1015.8 hPa | 0 mm | - | 543 W/m² | - |
| 1777910262 | 17.78° C | 48% | 1015.6 hPa | 0 mm | - | 418 W/m² | - |
| 1777909959 | 17.78° C | 48% | 1016 hPa | 0 mm | - | 578 W/m² | - |
| 1777909656 | 17.22° C | 49% | 1016 hPa | 0 mm | - | 415 W/m² | - |
| 1777909353 | 17.78° C | 49% | 1016 hPa | 0 mm | - | 434 W/m² | - |
| 1777909051 | 17.78° C | 48% | 1015.8 hPa | 0 mm | - | 413 W/m² | - |
| 1777908748 | 17.22° C | 49% | 1016.2 hPa | 0 mm | - | 394 W/m² | - |
| 1777908445 | 17.22° C | 47% | 1016.1 hPa | 0 mm | - | 406 W/m² | - |
| 1777908142 | 16.67° C | 50% | 1016.3 hPa | 0 mm | - | 471 W/m² | - |
| 1777907838 | 16.67° C | 51% | 1016.5 hPa | 0 mm | - | 392 W/m² | - |
| 1777907534 | 16.67° C | 51% | 1016.4 hPa | 0 mm | - | 347 W/m² | - |
| 1777907230 | 16.67° C | 50% | 1016.3 hPa | 0 mm | - | 308 W/m² | - |
| 1777906927 | 16.67° C | 51% | 1016.5 hPa | 0 mm | - | 383 W/m² | - |
| 1777906625 | 16.67° C | 52% | 1016.3 hPa | 0 mm | - | 354 W/m² | - |
| 1777906320 | 16.67° C | 51% | 1016.6 hPa | 0 mm | - | 381 W/m² | - |
| 1777906017 | 17.22° C | 49% | 1016.7 hPa | 0 mm | - | 450 W/m² | - |
* Rain latest hour (hover to see other rain measurements)
** Current wind speed in m/s (hover to see current wind gust speed)